Terminal Aerodrome Forecast
Issued by NWS Brownsville, TX

Home | Current Version | Previous Version | Text Only | Print | Product List | Glossary On
Versions: 1 2 3 4 5 6 7 8 9 10 11 12 13 14 15 16 17
000
FTUS44 KBRO 281303 AAB
TAFBRO
TAF AMD
KBRO 281303Z 2813/2912 14010KT P6SM SKC
     FM281600 15023G30KT P6SM SCT050
     FM290100 15017G25KT P6SM SCT025=

USA.gov is the U.S. government's official web portal to all federal, state and local government web resources and services.